Time;durP1;ratioP1;P1;durP2;ratioP2;P2;SDS_P1;SDS_P2;PMS_P1;PMS_P2;Temp;Humidity;BMP_temperature;BMP_pressure;BME280_temperature;BME280_humidity;BME280_pressure;Samples;Min_cycle;Max_cycle;Signal;HPM_P1;HPM_P2
2022/05/14 00:00:24;;;;;;;13.85;3.70;;;11.60;99.90;;;;;;6158496;23;20010;-86
2022/05/14 00:02:50;;;;;;;12.35;4.03;;;11.50;99.90;;;;;;6184049;23;20025;-86
2022/05/14 00:05:20;;;;;;;15.23;3.92;;;11.50;99.90;;;;;;6185128;23;20362;-86
2022/05/14 00:07:47;;;;;;;12.65;4.00;;;11.40;99.90;;;;;;6182791;23;20465;-86
2022/05/14 00:10:14;;;;;;;10.40;3.88;;;11.30;99.90;;;;;;6155306;23;20012;-86
2022/05/14 00:15:24;;;;;;;;;;;11.20;99.90;;;;;;6183649;23;20025;-86
2022/05/14 00:17:51;;;;;;;12.07;3.75;;;11.20;99.90;;;;;;6182024;23;20540;-86
2022/05/14 00:20:17;;;;;;;11.40;4.15;;;11.10;99.90;;;;;;6183659;23;20015;-86
2022/05/14 00:22:42;;;;;;;13.05;3.85;;;11.10;99.90;;;;;;6182504;23;20052;-86
2022/05/14 00:25:09;;;;;;;12.65;4.00;;;11.20;99.90;;;;;;6182080;23;20501;-86
2022/05/14 00:27:43;;;;;;;13.40;3.90;;;11.20;99.90;;;;;;6157636;23;20092;-86
2022/05/14 00:30:10;;;;;;;12.80;3.60;;;11.10;99.90;;;;;;6193251;23;20010;-87
2022/05/14 00:32:37;;;;;;;12.15;3.75;;;11.20;99.90;;;;;;6184281;23;20013;-87
2022/05/14 00:35:04;;;;;;;10.93;3.67;;;11.80;99.90;;;;;;6184471;23;20013;-86
2022/05/14 00:37:29;;;;;;;11.98;3.75;;;11.10;99.90;;;;;;6158703;23;20028;-86
2022/05/14 00:39:55;;;;;;;11.80;4.00;;;11.10;99.90;;;;;;6156579;23;20013;-86
2022/05/14 00:42:20;;;;;;;12.02;4.00;;;11.10;99.90;;;;;;6184020;23;20021;-85
2022/05/14 00:44:46;;;;;;;10.30;3.90;;;11.10;99.90;;;;;;6182278;23;20017;-85
2022/05/14 00:47:16;;;;;;;11.52;3.90;;;11.10;99.90;;;;;;6156857;23;20032;-85
2022/05/14 00:49:42;;;;;;;12.80;4.30;;;11.10;99.90;;;;;;6183743;23;20323;-86
2022/05/14 00:52:15;;;;;;;11.77;3.55;;;11.00;99.90;;;;;;6182289;23;20016;-85
2022/05/14 00:55:04;;;;;;;11.68;3.63;;;11.00;99.90;;;;;;6183814;23;20017;-86
2022/05/14 00:57:37;;;;;;;12.88;3.80;;;11.00;99.90;;;;;;6159697;23;20017;-85
2022/05/14 01:00:08;;;;;;;11.00;3.30;;;11.00;99.90;;;;;;6185399;23;20016;-85
2022/05/14 01:02:34;;;;;;;11.65;3.47;;;11.00;99.90;;;;;;6186477;23;20055;-86
2022/05/14 01:05:00;;;;;;;14.30;3.75;;;11.00;99.90;;;;;;6185693;23;20105;-86
2022/05/14 01:07:27;;;;;;;11.00;3.72;;;11.00;99.90;;;;;;6157706;23;20016;-86
2022/05/14 01:09:59;;;;;;;11.60;3.47;;;11.00;99.90;;;;;;6159340;23;20437;-86
2022/05/14 01:12:26;;;;;;;14.02;4.20;;;11.00;99.90;;;;;;6185908;23;20517;-86
2022/05/14 01:14:52;;;;;;;10.95;3.45;;;10.90;99.90;;;;;;6158414;23;20013;-86
2022/05/14 01:17:17;;;;;;;9.85;3.90;;;10.90;99.90;;;;;;6186048;23;20071;-86
2022/05/14 01:19:43;;;;;;;10.65;3.92;;;10.90;99.90;;;;;;6186395;23;20333;-86
2022/05/14 01:22:14;;;;;;;12.15;3.72;;;10.80;99.90;;;;;;6183799;23;20092;-85
2022/05/14 01:27:48;;;;;;;11.23;3.55;;;10.80;99.90;;;;;;6157746;23;20417;-85
2022/05/14 01:30:14;;;;;;;11.40;3.95;;;10.90;99.90;;;;;;6186794;23;20009;-85
2022/05/14 01:32:40;;;;;;;15.68;3.72;;;10.90;99.90;;;;;;6185915;23;20488;-86
2022/05/14 01:35:06;;;;;;;12.45;3.78;;;10.90;99.90;;;;;;6185239;23;20017;-86
2022/05/14 01:37:32;;;;;;;9.73;3.63;;;10.90;99.90;;;;;;6186467;23;20028;-85
2022/05/14 01:39:57;;;;;;;11.77;3.58;;;10.90;99.90;;;;;;6185579;23;20013;-86
2022/05/14 01:42:23;;;;;;;11.57;3.70;;;10.90;99.90;;;;;;6159176;23;20061;-86
2022/05/14 01:44:48;;;;;;;14.23;3.72;;;10.90;99.90;;;;;;6184446;23;20096;-85
2022/05/14 01:47:14;;;;;;;14.80;3.53;;;11.00;99.90;;;;;;6158510;23;20101;-85
2022/05/14 01:49:39;;;;;;;11.13;3.45;;;11.00;99.90;;;;;;6182374;23;20076;-86
2022/05/14 01:52:05;;;;;;;12.35;3.90;;;11.00;99.90;;;;;;6184542;23;20307;-85
2022/05/14 01:54:31;;;;;;;11.82;3.75;;;11.00;99.90;;;;;;6184004;23;20020;-86
2022/05/14 01:56:57;;;;;;;9.10;3.35;;;11.00;99.90;;;;;;6182895;23;20019;-85
2022/05/14 01:59:23;;;;;;;14.23;3.78;;;11.00;99.90;;;;;;6156493;23;20349;-85
2022/05/14 02:01:49;;;;;;;12.32;3.58;;;11.00;99.90;;;;;;6158097;23;20045;-86
2022/05/14 02:04:15;;;;;;;9.77;3.67;;;11.00;99.90;;;;;;6183986;23;20013;-85
2022/05/14 02:06:42;;;;;;;12.25;3.85;;;11.10;99.90;;;;;;6183680;23;20017;-85
2022/05/14 02:09:09;;;;;;;14.55;3.95;;;11.10;99.90;;;;;;6158733;23;20021;-85
2022/05/14 02:11:36;;;;;;;18.67;4.57;;;11.10;99.90;;;;;;6157163;23;20024;-86
2022/05/14 02:14:01;;;;;;;11.77;3.88;;;11.10;99.90;;;;;;6184830;23;20035;-85
2022/05/14 02:16:27;;;;;;;12.50;3.90;;;11.10;99.90;;;;;;6158122;23;20032;-85
2022/05/14 02:18:53;;;;;;;14.18;3.78;;;11.10;99.90;;;;;;6184944;23;20041;-85
2022/05/14 02:21:20;;;;;;;13.13;4.40;;;11.10;99.90;;;;;;6183252;23;20461;-85
2022/05/14 02:23:47;;;;;;;15.43;4.38;;;11.10;99.90;;;;;;6182570;23;20020;-86
2022/05/14 02:26:13;;;;;;;14.27;4.50;;;11.10;99.90;;;;;;6185463;23;20067;-86
2022/05/14 02:28:40;;;;;;;15.63;4.43;;;11.10;99.90;;;;;;6159610;23;20044;-85
2022/05/14 02:31:05;;;;;;;14.60;4.35;;;11.10;99.90;;;;;;6184589;23;20021;-85
2022/05/14 02:33:31;;;;;;;15.57;3.85;;;11.10;99.90;;;;;;6159399;23;20031;-85
2022/05/14 02:35:58;;;;;;;12.18;4.15;;;11.10;99.90;;;;;;6185311;23;20099;-86
2022/05/14 02:38:25;;;;;;;13.00;4.00;;;11.10;99.90;;;;;;6157646;23;20013;-85
2022/05/14 02:40:50;;;;;;;13.52;3.95;;;11.00;99.90;;;;;;6184502;23;20029;-86
2022/05/14 02:43:16;;;;;;;14.40;4.18;;;11.00;99.90;;;;;;6157057;23;20028;-85
2022/05/14 02:45:42;;;;;;;12.07;3.90;;;11.00;99.90;;;;;;6184563;23;20431;-86
2022/05/14 02:48:10;;;;;;;12.52;4.18;;;10.90;99.90;;;;;;6183263;23;20090;-85
2022/05/14 02:50:36;;;;;;;16.13;4.72;;;10.90;99.90;;;;;;6184603;23;20013;-85
2022/05/14 02:53:01;;;;;;;15.82;4.75;;;10.80;99.90;;;;;;6182786;23;20464;-85
2022/05/14 02:55:27;;;;;;;13.13;4.20;;;10.80;99.90;;;;;;6158639;23;20013;-86
2022/05/14 02:57:53;;;;;;;11.35;4.28;;;10.70;99.90;;;;;;6158138;23;20021;-86
2022/05/14 03:00:20;;;;;;;11.63;4.05;;;10.60;99.90;;;;;;6157966;23;20021;-85
2022/05/14 03:02:45;;;;;;;14.77;4.43;;;10.60;99.90;;;;;;6158816;23;20017;-85
2022/05/14 03:05:13;;;;;;;16.48;4.32;;;10.60;99.90;;;;;;6158716;23;20082;-85
2022/05/14 03:07:39;;;;;;;14.63;4.47;;;10.50;99.90;;;;;;6183129;23;20017;-85
2022/05/14 03:10:05;;;;;;;13.43;4.60;;;10.40;99.90;;;;;;6183589;23;20457;-85
2022/05/14 03:12:31;;;;;;;21.95;4.93;;;10.40;99.90;;;;;;6183115;23;20040;-85
2022/05/14 03:14:56;;;;;;;12.23;4.38;;;10.40;99.90;;;;;;6158186;23;20045;-86
2022/05/14 03:17:22;;;;;;;17.35;4.80;;;10.30;99.90;;;;;;6158242;23;20032;-86
2022/05/14 03:19:49;;;;;;;14.85;4.60;;;10.30;99.90;;;;;;6157492;23;20318;-86
2022/05/14 03:22:15;;;;;;;14.15;4.97;;;10.20;99.90;;;;;;6157653;23;20092;-86
2022/05/14 03:24:41;;;;;;;13.93;4.57;;;10.20;99.90;;;;;;6156506;23;20156;-85
2022/05/14 03:27:07;;;;;;;16.10;5.10;;;10.10;99.90;;;;;;6156904;23;20144;-85
2022/05/14 03:29:34;;;;;;;16.45;4.90;;;10.10;99.90;;;;;;6159050;23;20017;-85
2022/05/14 03:31:59;;;;;;;15.82;4.97;;;10.10;99.90;;;;;;6184987;23;20025;-84
2022/05/14 03:34:27;;;;;;;16.10;4.68;;;10.10;99.90;;;;;;6184171;23;20099;-85
2022/05/14 03:36:53;;;;;;;15.13;4.60;;;10.00;99.90;;;;;;6157026;23;20025;-85
2022/05/14 03:39:19;;;;;;;12.88;4.70;;;10.00;99.90;;;;;;6156721;23;20378;-85
2022/05/14 03:41:45;;;;;;;13.43;5.32;;;9.90;99.90;;;;;;6181834;23;20020;-86
2022/05/14 03:44:11;;;;;;;16.25;5.20;;;9.90;99.90;;;;;;6184528;23;20013;-85
2022/05/14 03:46:37;;;;;;;14.75;5.10;;;9.90;99.90;;;;;;6157957;23;20028;-86
2022/05/14 03:49:04;;;;;;;14.70;5.28;;;9.90;99.90;;;;;;6183623;23;20014;-85
2022/05/14 03:51:30;;;;;;;13.40;4.93;;;9.80;99.90;;;;;;6183925;23;20020;-85
2022/05/14 03:53:57;;;;;;;15.68;4.97;;;9.80;99.90;;;;;;6183692;23;20013;-85
2022/05/14 03:56:23;;;;;;;13.77;5.43;;;9.80;99.90;;;;;;6182999;23;20049;-85
2022/05/14 03:58:48;;;;;;;16.27;5.25;;;9.70;99.90;;;;;;6157843;23;20024;-86
2022/05/14 04:01:14;;;;;;;17.00;5.13;;;9.70;99.90;;;;;;6184987;23;20017;-86
2022/05/14 04:03:40;;;;;;;17.35;5.10;;;9.70;99.90;;;;;;6182447;23;20017;-85
2022/05/14 04:06:06;;;;;;;16.08;5.20;;;9.70;99.90;;;;;;6157564;23;20017;-85
2022/05/14 04:08:33;;;;;;;15.38;5.65;;;9.70;99.90;;;;;;6184249;23;20382;-85
2022/05/14 04:10:59;;;;;;;13.95;5.10;;;9.60;99.90;;;;;;6183506;23;20016;-85
2022/05/14 04:13:26;;;;;;;12.30;5.28;;;9.70;99.90;;;;;;6185187;23;20465;-86
2022/05/14 04:15:52;;;;;;;15.63;5.00;;;9.60;99.90;;;;;;6184284;23;20052;-85
2022/05/14 04:18:24;;;;;;;13.88;5.28;;;9.60;99.90;;;;;;6158635;23;20032;-85
2022/05/14 04:20:57;;;;;;;13.70;5.55;;;9.60;99.90;;;;;;6184322;23;20516;-86
2022/05/14 04:23:25;;;;;;;12.02;5.15;;;9.60;99.90;;;;;;6182192;23;20017;-86
2022/05/14 04:25:52;;;;;;;20.08;5.40;;;9.60;99.90;;;;;;6185082;23;20040;-86
2022/05/14 04:28:19;;;;;;;16.48;5.50;;;9.70;99.90;;;;;;6185589;23;20115;-85
2022/05/14 04:30:45;;;;;;;12.25;5.43;;;9.60;99.90;;;;;;6159053;23;20021;-84
2022/05/14 04:33:11;;;;;;;17.63;5.75;;;9.70;99.90;;;;;;6159893;23;20049;-85
2022/05/14 04:35:37;;;;;;;14.40;5.80;;;9.70;99.90;;;;;;6160107;23;20092;-85
2022/05/14 04:38:03;;;;;;;15.63;5.70;;;9.70;99.90;;;;;;6159136;23;20077;-85
2022/05/14 04:40:28;;;;;;;13.70;5.57;;;9.70;99.90;;;;;;6159885;23;20017;-85
2022/05/14 04:42:54;;;;;;;15.32;5.50;;;9.70;99.90;;;;;;6186390;23;20040;-85
2022/05/14 04:45:19;;;;;;;19.65;5.60;;;9.70;99.90;;;;;;6185930;23;20024;-85
2022/05/14 04:47:45;;;;;;;16.85;5.25;;;9.80;99.90;;;;;;6159178;23;20021;-85
2022/05/14 04:50:12;;;;;;;15.63;5.97;;;9.80;99.90;;;;;;6159747;23;20364;-85
2022/05/14 04:52:38;;;;;;;13.52;5.55;;;9.80;99.90;;;;;;6184333;23;20020;-85
2022/05/14 04:55:04;;;;;;;13.63;5.60;;;9.80;99.90;;;;;;6185965;23;20021;-84
2022/05/14 04:57:30;;;;;;;15.95;6.18;;;9.80;99.90;;;;;;6159965;23;20029;-84
2022/05/14 04:59:55;;;;;;;16.00;6.25;;;9.90;99.90;;;;;;6185417;23;20299;-85
2022/05/14 05:05:05;;;;;;;17.50;5.75;;;9.90;99.90;;;;;;6157279;23;20041;-85
2022/05/14 05:07:31;;;;;;;14.35;5.68;;;10.00;99.90;;;;;;6185105;23;20051;-85
2022/05/14 05:09:57;;;;;;;16.23;5.90;;;10.00;99.90;;;;;;6185879;23;20021;-85
2022/05/14 05:12:22;;;;;;;15.90;5.72;;;10.10;99.90;;;;;;6185435;23;20523;-85
2022/05/14 05:14:48;;;;;;;17.88;5.80;;;10.10;99.90;;;;;;6159328;23;20543;-85
2022/05/14 05:17:14;;;;;;;16.42;6.03;;;10.20;99.90;;;;;;6158637;23;20021;-85
2022/05/14 05:19:39;;;;;;;14.02;5.80;;;10.20;99.90;;;;;;6158514;23;20024;-85
2022/05/14 05:22:05;;;;;;;19.73;6.43;;;10.30;99.90;;;;;;6184857;23;20013;-85
2022/05/14 05:24:31;;;;;;;16.55;5.90;;;10.30;99.90;;;;;;6160040;23;20025;-85
2022/05/14 05:26:57;;;;;;;18.92;6.13;;;10.40;99.90;;;;;;6158937;23;20017;-84
2022/05/14 05:29:22;;;;;;;27.17;6.50;;;10.40;99.90;;;;;;6159787;23;20067;-85
2022/05/14 05:31:48;;;;;;;18.17;6.57;;;10.50;99.90;;;;;;6185639;23;20013;-85
2022/05/14 05:34:13;;;;;;;20.20;6.35;;;10.60;99.90;;;;;;6158566;23;20021;-85
2022/05/14 05:36:39;;;;;;;15.32;6.72;;;10.70;99.90;;;;;;6186629;23;20151;-85
2022/05/14 05:39:04;;;;;;;17.88;6.55;;;10.70;99.90;;;;;;6186656;23;20355;-85
2022/05/14 05:41:30;;;;;;;22.60;7.00;;;10.80;99.90;;;;;;6185634;23;20369;-85
2022/05/14 05:43:55;;;;;;;20.73;6.85;;;10.90;99.90;;;;;;6159506;23;20036;-85
2022/05/14 05:46:21;;;;;;;20.25;7.35;;;11.00;99.90;;;;;;6158450;23;20020;-85
2022/05/14 05:48:47;;;;;;;24.00;8.48;;;11.00;99.90;;;;;;6156616;23;20063;-85
2022/05/14 05:51:13;;;;;;;19.25;7.38;;;11.10;99.90;;;;;;6157047;23;20025;-85
2022/05/14 05:59:07;;;;;;;19.60;7.10;;;11.40;99.90;;;;;;6186019;23;19916;-85
2022/05/14 06:01:33;;;;;;;20.50;7.78;;;11.50;99.90;;;;;;6184403;23;20024;-84
2022/05/14 06:03:58;;;;;;;23.63;7.28;;;12.00;99.90;;;;;;6184926;23;20021;-85
2022/05/14 06:06:24;;;;;;;21.70;6.90;;;11.80;99.90;;;;;;6184359;23;20018;-84
2022/05/14 06:08:50;;;;;;;22.17;7.72;;;11.90;99.90;;;;;;6183070;23;20064;-85
2022/05/14 06:11:17;;;;;;;21.83;8.45;;;12.00;99.90;;;;;;6157613;23;20025;-84
2022/05/14 06:13:43;;;;;;;23.88;7.57;;;12.20;99.90;;;;;;6185117;23;20012;-85
2022/05/14 06:16:10;;;;;;;20.63;7.90;;;12.30;99.90;;;;;;6184706;23;20374;-85
2022/05/14 06:18:37;;;;;;;21.98;7.85;;;12.40;99.90;;;;;;6158741;23;20013;-89
2022/05/14 06:21:04;;;;;;;16.90;6.93;;;12.50;99.90;;;;;;6183394;23;20052;-89
2022/05/14 06:23:29;;;;;;;17.40;6.85;;;12.60;99.90;;;;;;6156906;23;20072;-89
2022/05/14 06:25:55;;;;;;;22.27;7.45;;;12.80;99.90;;;;;;6159255;23;20028;-88
2022/05/14 06:28:21;;;;;;;21.98;7.63;;;12.80;99.90;;;;;;6159751;23;20024;-88
2022/05/14 06:30:46;;;;;;;21.92;7.18;;;12.90;99.90;;;;;;6157762;23;20013;-89
2022/05/14 06:33:12;;;;;;;19.33;6.95;;;13.00;99.90;;;;;;6184849;23;20091;-88
2022/05/14 06:35:39;;;;;;;19.58;7.82;;;13.10;99.90;;;;;;6158866;23;20028;-87
2022/05/14 06:38:06;;;;;;;21.83;7.25;;;13.20;99.90;;;;;;6157667;23;20024;-87
2022/05/14 06:40:33;;;;;;;24.40;7.15;;;13.40;99.90;;;;;;6158766;23;20114;-86
2022/05/14 06:42:59;;;;;;;23.55;6.82;;;13.50;99.90;;;;;;6158417;23;20024;-87
2022/05/14 06:45:24;;;;;;;22.38;7.43;;;13.70;99.90;;;;;;6159750;23;20017;-87
2022/05/14 06:47:50;;;;;;;22.98;6.70;;;13.90;99.90;;;;;;6157265;23;20033;-87
2022/05/14 06:50:16;;;;;;;20.45;6.80;;;14.00;99.90;;;;;;6183984;23;20005;-85
2022/05/14 06:52:46;;;;;;;19.83;6.85;;;14.10;99.90;;;;;;6182949;23;20067;-87
2022/05/14 06:55:17;;;;;;;19.17;6.97;;;14.10;99.90;;;;;;6185610;23;20088;-88
2022/05/14 06:57:43;;;;;;;20.50;6.80;;;14.10;99.90;;;;;;6184114;23;20345;-88
2022/05/14 07:00:09;;;;;;;19.10;7.45;;;14.00;99.90;;;;;;6158717;23;20467;-88
2022/05/14 07:02:35;;;;;;;20.98;7.65;;;14.00;99.90;;;;;;6183534;23;20480;-87
2022/05/14 07:07:47;;;;;;;19.92;7.28;;;13.90;99.90;;;;;;6156182;23;20021;-88
2022/05/14 07:10:12;;;;;;;20.83;7.18;;;14.00;99.90;;;;;;6184653;23;20373;-89
2022/05/14 07:12:38;;;;;;;21.27;7.90;;;14.10;99.90;;;;;;6184725;23;20071;-88
2022/05/14 07:15:05;;;;;;;23.02;7.60;;;14.30;99.90;;;;;;6158289;23;20450;-88
2022/05/14 07:17:31;;;;;;;20.92;6.72;;;14.50;99.90;;;;;;6157244;23;20017;-88
2022/05/14 07:19:58;;;;;;;17.98;7.00;;;14.70;99.90;;;;;;6156298;23;20017;-88
2022/05/14 07:22:23;;;;;;;20.52;7.10;;;14.80;99.90;;;;;;6183454;23;20071;-88
2022/05/14 07:24:49;;;;;;;19.10;6.32;;;15.00;99.90;;;;;;6155856;23;20500;-87
2022/05/14 07:27:16;;;;;;;18.50;6.63;;;15.10;99.90;;;;;;6182727;23;20453;-89
2022/05/14 07:29:43;;;;;;;19.60;7.68;;;15.20;99.90;;;;;;6159069;23;20071;-87
2022/05/14 07:32:12;;;;;;;19.13;6.32;;;15.30;99.90;;;;;;6185606;23;20013;-87
2022/05/14 07:34:39;;;;;;;20.33;6.72;;;15.30;99.90;;;;;;6158119;23;20044;-85
2022/05/14 07:37:22;;;;;;;21.02;6.97;;;15.80;99.90;;;;;;6184525;23;20023;-85
2022/05/14 07:39:56;;;;;;;18.40;7.60;;;15.50;99.90;;;;;;6182653;23;20398;-86
2022/05/14 07:42:33;;;;;;;17.30;7.18;;;15.60;99.90;;;;;;6184790;23;20020;-85
2022/05/14 07:45:01;;;;;;;18.73;6.28;;;15.70;99.90;;;;;;6158269;23;20582;-86
2022/05/14 07:47:28;;;;;;;20.13;7.43;;;15.80;99.90;;;;;;6156712;23;20021;-86
2022/05/14 07:49:54;;;;;;;20.15;7.35;;;15.90;99.90;;;;;;6185220;23;20084;-86
2022/05/14 07:52:21;;;;;;;23.73;7.53;;;16.00;99.90;;;;;;6184450;23;20032;-86
2022/05/14 07:54:47;;;;;;;19.45;7.03;;;16.10;99.90;;;;;;6155312;23;20025;-85
2022/05/14 07:57:13;;;;;;;19.27;6.57;;;16.20;99.90;;;;;;6157324;23;20025;-89
2022/05/14 07:59:39;;;;;;;18.67;6.47;;;16.40;99.90;;;;;;6185036;23;20009;-87
2022/05/14 08:02:06;;;;;;;18.50;6.07;;;16.40;99.90;;;;;;6157265;23;20051;-87
2022/05/14 08:04:33;;;;;;;18.90;6.22;;;16.60;99.90;;;;;;6185427;23;20016;-85
2022/05/14 08:06:58;;;;;;;16.85;6.43;;;16.60;99.90;;;;;;6184920;23;20092;-87
2022/05/14 08:09:24;;;;;;;22.83;5.93;;;16.70;99.90;;;;;;6158218;23;20416;-86
2022/05/14 08:11:52;;;;;;;18.38;6.20;;;16.80;99.90;;;;;;6160069;23;20056;-86
2022/05/14 08:14:19;;;;;;;24.00;6.07;;;16.80;99.90;;;;;;6161084;23;20021;-88
2022/05/14 08:16:44;;;;;;;18.50;6.43;;;16.90;99.90;;;;;;6187021;23;20017;-88
2022/05/14 08:19:10;;;;;;;17.70;5.60;;;16.90;99.90;;;;;;6185895;23;20025;-86
2022/05/14 08:24:36;;;;;;;19.67;6.22;;;17.20;99.90;;;;;;6159283;23;20096;-86
2022/05/14 08:27:04;;;;;;;20.33;5.50;;;17.30;99.90;;;;;;6160022;23;20389;-86
2022/05/14 08:29:32;;;;;;;18.50;5.57;;;17.40;99.90;;;;;;6159240;23;20013;-86
2022/05/14 08:31:57;;;;;;;19.77;5.22;;;17.60;99.90;;;;;;6186428;23;20028;-86
2022/05/14 08:34:23;;;;;;;19.20;5.57;;;17.60;99.90;;;;;;6160427;23;20009;-86
2022/05/14 08:36:48;;;;;;;16.52;4.78;;;17.80;99.90;;;;;;6158709;23;20032;-86
2022/05/14 08:39:16;;;;;;;15.50;4.88;;;17.70;99.90;;;;;;6160387;23;20024;-86
2022/05/14 08:41:47;;;;;;;21.50;4.95;;;17.60;99.90;;;;;;6186552;23;20017;-86
2022/05/14 08:44:16;;;;;;;16.52;4.53;;;17.60;99.90;;;;;;6185446;23;20044;-86
2022/05/14 08:46:44;;;;;;;16.98;4.38;;;17.80;99.90;;;;;;6186147;23;20013;-87
2022/05/14 08:49:20;;;;;;;16.83;4.60;;;17.80;99.90;;;;;;6159220;23;20036;-86
2022/05/14 08:51:50;;;;;;;20.48;5.72;;;17.90;99.90;;;;;;6158814;23;20024;-86
2022/05/14 08:54:16;;;;;;;15.98;4.22;;;18.00;99.90;;;;;;6186526;23;20140;-87
2022/05/14 08:56:54;;;;;;;18.80;4.85;;;18.10;99.90;;;;;;6159788;23;20028;-87
2022/05/14 08:59:35;;;;;;;14.32;4.00;;;18.20;99.90;;;;;;6185517;23;20017;-87
2022/05/14 09:02:16;;;;;;;21.50;5.53;;;18.00;99.90;;;;;;6159622;23;20356;-86
2022/05/14 09:04:42;;;;;;;19.85;4.63;;;17.80;99.90;;;;;;6184873;23;20307;-89
2022/05/14 09:07:07;;;;;;;17.27;4.70;;;17.80;99.90;;;;;;6187500;23;20013;-91
2022/05/14 09:09:33;;;;;;;16.80;3.97;;;18.00;99.90;;;;;;6159527;23;20017;-87
2022/05/14 09:12:02;;;;;;;15.98;4.35;;;18.30;99.90;;;;;;6158358;23;20028;-88
2022/05/14 09:14:33;;;;;;;17.70;4.25;;;18.40;99.90;;;;;;6186399;23;20013;-86
2022/05/14 09:17:20;;;;;;;15.27;4.43;;;18.60;99.90;;;;;;6158985;23;20465;-89
2022/05/14 09:19:47;;;;;;;15.50;4.10;;;18.70;99.90;;;;;;6158433;23;20140;-86
2022/05/14 09:22:32;;;;;;;20.15;4.93;;;18.90;99.90;;;;;;6186604;23;20013;-89
2022/05/14 09:25:04;;;;;;;18.33;4.68;;;18.80;99.90;;;;;;6159593;23;20024;-91
2022/05/14 09:27:44;;;;;;;16.95;4.97;;;19.20;99.90;;;;;;6186860;23;20025;-89
2022/05/14 09:30:34;;;;;;;14.93;3.97;;;19.30;99.90;;;;;;6159699;23;20023;-88
2022/05/14 09:32:59;;;;;;;17.38;4.55;;;19.30;99.90;;;;;;6158532;23;20017;-90
2022/05/14 09:35:29;;;;;;;16.67;4.72;;;19.30;99.90;;;;;;6186430;23;20108;-88
2022/05/14 09:38:18;;;;;;;16.02;4.68;;;19.20;99.90;;;;;;6185704;23;20017;-89
2022/05/14 09:40:45;;;;;;;14.63;4.32;;;18.80;99.90;;;;;;6185430;23;20052;-88
2022/05/14 09:43:12;;;;;;;18.48;4.40;;;18.70;99.90;;;;;;6159557;23;20028;-90
2022/05/14 09:45:40;;;;;;;17.90;4.85;;;18.40;99.90;;;;;;6159134;23;20430;-89
2022/05/14 09:48:17;;;;;;;16.38;5.05;;;18.60;99.90;;;;;;6158404;23;20021;-88
2022/05/14 09:50:46;;;;;;;14.93;4.40;;;18.80;99.90;;;;;;6185798;23;20013;-86
2022/05/14 09:53:12;;;;;;;15.32;4.72;;;18.60;99.90;;;;;;6185981;23;20341;-89
2022/05/14 09:55:55;;;;;;;15.75;4.35;;;18.70;99.90;;;;;;6184323;23;20017;-84
2022/05/14 09:58:36;;;;;;;18.25;4.40;;;19.10;99.90;;;;;;6185650;23;20471;-85
2022/05/14 10:01:09;;;;;;;17.02;4.82;;;19.10;99.90;;;;;;6184293;23;20101;-84
2022/05/14 10:03:54;;;;;;;16.73;4.30;;;19.30;99.90;;;;;;6185940;23;20322;-85
2022/05/14 10:06:35;;;;;;;16.00;4.32;;;19.70;99.90;;;;;;6159693;23;20334;-84
2022/05/14 10:09:17;;;;;;;16.55;4.25;;;20.20;99.90;;;;;;6157661;23;20449;-84
2022/05/14 10:11:58;;;;;;;16.73;4.32;;;20.40;99.90;;;;;;6185275;23;20017;-84
2022/05/14 10:14:32;;;;;;;18.45;4.13;;;20.30;99.90;;;;;;6186271;23;20017;-84
2022/05/14 10:17:18;;;;;;;18.98;4.40;;;20.00;99.90;;;;;;6185362;23;20459;-85
2022/05/14 10:20:05;;;;;;;15.80;4.10;;;19.80;99.90;;;;;;6158745;23;20043;-84
2022/05/14 10:29:17;;;;;;;15.95;4.00;;;19.50;99.90;;;;;;6157677;23;20055;-84
2022/05/14 10:32:00;;;;;;;16.23;4.40;;;19.60;99.90;;;;;;6104300;23;20013;-85
2022/05/14 10:35:11;;;;;;;17.42;4.50;;;19.70;99.90;;;;;;6159506;23;20025;-84
2022/05/14 10:37:48;;;;;;;15.52;4.32;;;19.50;99.90;;;;;;6121514;23;20013;-85
2022/05/14 10:40:27;;;;;;;13.90;4.20;;;19.30;99.90;;;;;;6182437;23;20063;-85
2022/05/14 10:42:53;;;;;;;14.52;4.20;;;19.70;99.90;;;;;;6187230;23;20024;-87
2022/05/14 10:45:36;;;;;;;16.30;3.78;;;19.60;99.90;;;;;;6158563;23;20013;-86
2022/05/14 10:48:04;;;;;;;14.93;4.22;;;19.80;99.90;;;;;;6185370;23;20021;-87
2022/05/14 10:50:30;;;;;;;18.70;5.00;;;20.00;99.90;;;;;;6157334;23;20472;-86
2022/05/14 10:52:57;;;;;;;15.45;4.13;;;20.20;99.90;;;;;;6158741;23;20052;-86
2022/05/14 10:55:25;;;;;;;15.02;4.32;;;21.10;99.90;;;;;;6157930;23;20013;-86
2022/05/14 10:57:59;;;;;;;13.75;4.05;;;21.50;99.90;;;;;;6183888;23;20112;-85
2022/05/14 11:00:28;;;;;;;16.00;4.25;;;21.50;99.70;;;;;;6186962;23;20016;-86
2022/05/14 11:03:01;;;;;;;15.23;4.45;;;20.90;98.30;;;;;;6158381;23;20025;-84
2022/05/14 11:05:34;;;;;;;15.40;4.38;;;20.80;98.80;;;;;;6157795;23;20394;-84
2022/05/14 11:08:25;;;;;;;15.68;4.00;;;20.80;99.10;;;;;;6185300;23;20025;-83
2022/05/14 11:11:08;;;;;;;16.25;4.93;;;20.50;98.70;;;;;;6185037;23;20095;-86
2022/05/14 11:13:34;;;;;;;15.95;4.10;;;20.40;99.10;;;;;;6159422;23;20083;-89
2022/05/14 11:16:10;;;;;;;17.17;4.50;;;20.20;99.70;;;;;;6188505;23;20017;-88
2022/05/14 11:18:55;;;;;;;18.38;4.47;;;20.10;98.90;;;;;;6184011;23;20075;-86
2022/05/14 11:21:39;;;;;;;15.98;4.20;;;20.20;99.20;;;;;;6182927;23;20025;-87
2022/05/14 11:24:07;;;;;;;14.38;4.45;;;20.20;99.90;;;;;;6184734;23;20024;-86
2022/05/14 11:26:47;;;;;;;16.48;4.40;;;20.00;99.80;;;;;;6184416;23;20020;-87
2022/05/14 11:29:18;;;;;;;20.25;4.45;;;20.00;99.70;;;;;;6158700;23;20013;-87
2022/05/14 11:32:02;;;;;;;16.15;4.68;;;20.10;99.90;;;;;;6185337;23;20088;-87
2022/05/14 11:34:28;;;;;;;15.70;4.10;;;20.30;99.20;;;;;;6159542;23;20021;-86
2022/05/14 11:36:57;;;;;;;15.68;4.10;;;20.20;99.20;;;;;;6158616;23;20101;-88
2022/05/14 11:39:25;;;;;;;15.85;4.30;;;20.00;99.10;;;;;;6184048;23;20019;-86
2022/05/14 11:41:53;;;;;;;14.30;3.53;;;20.00;99.20;;;;;;6184819;23;20024;-86
2022/05/14 11:44:44;;;;;;;14.95;4.05;;;20.40;99.00;;;;;;6185113;23;20112;-86
2022/05/14 11:47:52;;;;;;;15.70;3.83;;;20.90;98.00;;;;;;6184367;23;20017;-87
2022/05/14 11:50:23;;;;;;;15.05;4.10;;;21.60;97.10;;;;;;6011634;23;20027;-87
2022/05/14 11:53:02;;;;;;;15.77;3.80;;;22.00;96.60;;;;;;6141547;23;20025;-86
2022/05/14 11:55:48;;;;;;;15.50;4.13;;;22.30;96.20;;;;;;6184574;23;20017;-86
2022/05/14 11:58:36;;;;;;;16.10;4.13;;;22.10;94.50;;;;;;6185571;23;20052;-86
2022/05/14 12:01:07;;;;;;;15.10;5.00;;;22.00;95.80;;;;;;6183861;23;20088;-87
2022/05/14 12:03:40;;;;;;;14.45;4.43;;;21.80;95.60;;;;;;6159039;23;20017;-86
2022/05/14 12:06:14;;;;;;;14.20;4.00;;;21.40;95.10;;;;;;6184874;23;20100;-87
2022/05/14 12:08:54;;;;;;;14.75;4.15;;;21.20;95.80;;;;;;6184051;23;20040;-86
2022/05/14 12:11:27;;;;;;;17.45;4.32;;;20.90;95.30;;;;;;6185160;23;20020;-87
2022/05/14 12:14:07;;;;;;;15.85;4.38;;;20.80;96.00;;;;;;6186596;23;20028;-86
2022/05/14 12:16:40;;;;;;;16.95;4.22;;;21.20;95.40;;;;;;6185205;23;20132;-86
2022/05/14 12:19:14;;;;;;;16.13;4.15;;;21.80;95.30;;;;;;6158844;23;20009;-86
2022/05/14 12:21:40;;;;;;;17.13;4.63;;;22.10;95.20;;;;;;6183504;23;20103;-86
2022/05/14 12:24:18;;;;;;;15.27;4.15;;;22.50;94.70;;;;;;6158767;23;20014;-86
2022/05/14 12:26:45;;;;;;;15.27;3.88;;;23.10;93.60;;;;;;6185101;23;20052;-86
2022/05/14 12:29:19;;;;;;;14.23;3.95;;;23.30;94.20;;;;;;6184311;23;20072;-88
2022/05/14 12:34:36;;;;;;;13.13;3.70;;;23.60;92.80;;;;;;6159112;23;20028;-87
2022/05/14 12:37:08;;;;;;;15.13;4.10;;;23.20;91.20;;;;;;6184147;23;20045;-85
2022/05/14 12:39:34;;;;;;;15.20;4.03;;;23.00;92.20;;;;;;6158262;23;20084;-86
2022/05/14 12:42:05;;;;;;;11.25;3.50;;;22.50;91.80;;;;;;6157784;23;20025;-86
2022/05/14 12:44:44;;;;;;;17.05;4.35;;;22.30;91.90;;;;;;6157577;23;20346;-87
2022/05/14 12:47:10;;;;;;;14.50;3.90;;;21.90;91.30;;;;;;6185320;23;20020;-86
2022/05/14 12:49:45;;;;;;;16.67;4.00;;;21.70;91.70;;;;;;6183857;23;20059;-87
2022/05/14 12:52:11;;;;;;;13.32;3.95;;;21.40;91.40;;;;;;6160779;23;20021;-87
2022/05/14 12:55:01;;;;;;;14.80;4.13;;;21.30;92.00;;;;;;6186882;23;20017;-88
2022/05/14 12:57:29;;;;;;;17.30;3.70;;;21.30;92.00;;;;;;6184380;23;20475;-86
2022/05/14 12:59:56;;;;;;;16.38;4.20;;;21.20;92.10;;;;;;6186121;23;20434;-87
2022/05/14 13:02:34;;;;;;;15.80;3.90;;;21.20;92.10;;;;;;6186939;23;20152;-86
2022/05/14 13:05:13;;;;;;;14.07;4.03;;;21.20;92.10;;;;;;6185812;23;20009;-86
2022/05/14 13:07:49;;;;;;;15.93;4.03;;;21.40;92.20;;;;;;6160122;23;20028;-87
2022/05/14 13:10:22;;;;;;;15.35;3.78;;;21.20;92.10;;;;;;6160347;23;20071;-87
2022/05/14 13:13:03;;;;;;;14.93;4.00;;;21.30;92.20;;;;;;6159641;23;20381;-88
2022/05/14 13:15:44;;;;;;;16.02;4.45;;;21.50;92.10;;;;;;6159882;23;20022;-86
2022/05/14 13:18:15;;;;;;;18.60;4.50;;;21.40;92.20;;;;;;6185716;23;20016;-87